Data at: 2056 UTC 28 Jun 2017

METAR for:KAFF (Air Force Academy Ai, CO, US)
Text:KAFF 281958Z AUTO 15017G28KT 10SM FEW140 SCT200 27/02 A2994 RMK AO2 PK WND 15029/42 SLP041 T02700018
Temperature: 27.0°C ( 81°F)
Dewpoint: 1.8°C ( 35°F) [RH = 20%]
Pressure (altimeter):29.94 inches Hg (1014.0 mb) [Sea level pressure: 1004.1 mb]
Winds:from the SSE (150 degrees) at 20 MPH (17 knots; 8.7 m/s) gusting to 32 MPH (28 knots; 14.4 m/s)
Visibility:10 or more sm (16+ km)
Ceiling:at least 12,000 feet AGL
Clouds: few clouds at 14000 feet AGL, scattered clouds at 20000 feet AGL
QC Flag:automated observation with no human augmentation
Text:KAFF 281858Z AUTO 14021G26KT 10SM FEW180 27/02 A2998 RMK AO2 SLP052 T02680023
Temperature: 26.8°C ( 80°F)
Dewpoint: 2.3°C ( 36°F) [RH = 20%]
Pressure (altimeter):29.98 inches Hg (1015.3 mb) [Sea level pressure: 1005.2 mb]
Winds:from the SE (140 degrees) at 24 MPH (21 knots; 10.8 m/s) gusting to 30 MPH (26 knots; 13.4 m/s)
Visibility:10 or more sm (16+ km)
Ceiling:at least 12,000 feet AGL
Clouds: few clouds at 18000 feet AGL
QC Flag:automated observation with no human augmentation
Text:KAFF 281758Z AUTO 14018G23KT 10SM FEW200 26/03 A3000 RMK AO2 SLP056 T02550026 10255 20110 57019
Temperature: 25.5°C ( 78°F)
Dewpoint: 2.6°C ( 37°F) [RH = 23%]
Pressure (altimeter):30.00 inches Hg (1016.0 mb) [Sea level pressure: 1005.6 mb]
Winds:from the SE (140 degrees) at 21 MPH (18 knots; 9.3 m/s) gusting to 26 MPH (23 knots; 11.8 m/s)
Visibility:10 or more sm (16+ km)
Ceiling:at least 12,000 feet AGL
Clouds: few clouds at 20000 feet AGL
QC Flag:automated observation with no human augmentation
Text:KAFF 281658Z AUTO 18010G17KT 10SM CLR 24/03 A3003 RMK AO2 SLP070 T02380033
Temperature: 23.8°C ( 75°F)
Dewpoint: 3.3°C ( 38°F) [RH = 26%]
Pressure (altimeter):30.03 inches Hg (1017.0 mb) [Sea level pressure: 1007.0 mb]
Winds:from the S (180 degrees) at 12 MPH (10 knots; 5.1 m/s) gusting to 20 MPH (17 knots; 8.7 m/s)
Visibility:10 or more sm (16+ km)
Ceiling:at least 12,000 feet AGL
Clouds:sky clear below 12,000 feet AGL
QC Flag:automated observation with no human augmentation
Text:KAFF 281558Z AUTO 19009KT 10SM CLR 22/03 A3005 RMK AO2 SLP083 T02190027
Temperature: 21.9°C ( 71°F)
Dewpoint: 2.7°C ( 37°F) [RH = 28%]
Pressure (altimeter):30.05 inches Hg (1017.7 mb) [Sea level pressure: 1008.3 mb]
Winds:from the S (190 degrees) at 10 MPH (9 knots; 4.6 m/s)
Visibility:10 or more sm (16+ km)
Ceiling:at least 12,000 feet AGL
Clouds:sky clear below 12,000 feet AGL
QC Flag:automated observation with no human augmentation
Text:KAFF 281458Z AUTO 00000KT 10SM CLR 20/03 A3007 RMK AO2 SLP087 T01970034 53002
Temperature: 19.7°C ( 67°F)
Dewpoint: 3.4°C ( 38°F) [RH = 34%]
Pressure (altimeter):30.07 inches Hg (1018.4 mb) [Sea level pressure: 1008.7 mb]
Winds:calm
Visibility:10 or more sm (16+ km)
Ceiling:at least 12,000 feet AGL
Clouds:sky clear below 12,000 feet AGL
QC Flag:automated observation with no human augmentation
Text:KAFF 281358Z AUTO 00000KT 10SM CLR 17/04 A3007 RMK AO2 SLP081 T01690042
Temperature: 16.9°C ( 62°F)
Dewpoint: 4.2°C ( 40°F) [RH = 43%]
Pressure (altimeter):30.07 inches Hg (1018.4 mb) [Sea level pressure: 1008.1 mb]
Winds:calm
Visibility:10 or more sm (16+ km)
Ceiling:at least 12,000 feet AGL
Clouds:sky clear below 12,000 feet AGL
QC Flag:automated observation with no human augmentation
Text:KAFF 281258Z AUTO 01005KT 10SM CLR 13/05 A3006 RMK AO2 SLP080 T01260047
Temperature: 12.6°C ( 55°F)
Dewpoint: 4.7°C ( 40°F) [RH = 59%]
Pressure (altimeter):30.06 inches Hg (1018.0 mb) [Sea level pressure: 1008.0 mb]
Winds:from the N (10 degrees) at 6 MPH (5 knots; 2.6 m/s)
Visibility:10 or more sm (16+ km)
Ceiling:at least 12,000 feet AGL
Clouds:sky clear below 12,000 feet AGL
QC Flag:automated observation with no human augmentation
Text:KAFF 281158Z COR 36008KT 10SM CLR 11/04 A3007 RMK AO2A SLP087 T01100036 10195 20110 52013 COR 1201
Temperature: 11.0°C ( 52°F)
Dewpoint: 3.6°C ( 38°F) [RH = 60%]
Pressure (altimeter):30.07 inches Hg (1018.4 mb) [Sea level pressure: 1008.7 mb]
Winds:from the N (360 degrees) at 9 MPH (8 knots; 4.1 m/s)
Visibility:10 or more sm (16+ km)
Ceiling:at least 12,000 feet AGL
Clouds:sky clear below 12,000 feet AGL
Text:KAFF 281058Z AUTO 35009KT 10SM CLR 12/04 A3006 RMK AO2 SLP080 T01210036
Temperature: 12.1°C ( 54°F)
Dewpoint: 3.6°C ( 38°F) [RH = 56%]
Pressure (altimeter):30.06 inches Hg (1018.0 mb) [Sea level pressure: 1008.0 mb]
Winds:from the N (350 degrees) at 10 MPH (9 knots; 4.6 m/s)
Visibility:10 or more sm (16+ km)
Ceiling:at least 12,000 feet AGL
Clouds:sky clear below 12,000 feet AGL
QC Flag:automated observation with no human augmentation
Text:KAFF 280958Z AUTO 36006KT 10SM CLR 11/02 A3005 RMK AO2 SLP080 T01140021
Temperature: 11.4°C ( 53°F)
Dewpoint: 2.1°C ( 36°F) [RH = 53%]
Pressure (altimeter):30.05 inches Hg (1017.7 mb) [Sea level pressure: 1008.0 mb]
Winds:from the N (360 degrees) at 7 MPH (6 knots; 3.1 m/s)
Visibility:10 or more sm (16+ km)
Ceiling:at least 12,000 feet AGL
Clouds:sky clear below 12,000 feet AGL
QC Flag:automated observation with no human augmentation
Text:KAFF 280858Z AUTO 36009KT 10SM CLR 12/02 A3002 RMK AO2 SLP066 T01230018 50001
Temperature: 12.3°C ( 54°F)
Dewpoint: 1.8°C ( 35°F) [RH = 49%]
Pressure (altimeter):30.02 inches Hg (1016.7 mb) [Sea level pressure: 1006.6 mb]
Winds:from the N (360 degrees) at 10 MPH (9 knots; 4.6 m/s)
Visibility:10 or more sm (16+ km)
Ceiling:at least 12,000 feet AGL
Clouds:sky clear below 12,000 feet AGL
QC Flag:automated observation with no human augmentation
Text:KAFF 280758Z AUTO 01010KT 10SM CLR 14/02 A3001 RMK AO2 SLP060 T01390018
Temperature: 13.9°C ( 57°F)
Dewpoint: 1.8°C ( 35°F) [RH = 44%]
Pressure (altimeter):30.01 inches Hg (1016.3 mb) [Sea level pressure: 1006.0 mb]
Winds:from the N (10 degrees) at 12 MPH (10 knots; 5.1 m/s)
Visibility:10 or more sm (16+ km)
Ceiling:at least 12,000 feet AGL
Clouds:sky clear below 12,000 feet AGL
QC Flag:automated observation with no human augmentation
Text:KAFF 280658Z AUTO 32005KT 10SM CLR 17/01 A3002 RMK AO2 SLP060 T01650013 403240082
Temperature: 16.5°C ( 62°F)
Dewpoint: 1.3°C ( 34°F) [RH = 36%]
Pressure (altimeter):30.02 inches Hg (1016.7 mb) [Sea level pressure: 1006.0 mb]
Winds:from the NW (320 degrees) at 6 MPH (5 knots; 2.6 m/s)
Visibility:10 or more sm (16+ km)
Ceiling:at least 12,000 feet AGL
Clouds:sky clear below 12,000 feet AGL
QC Flag:automated observation with no human augmentation
Text:KAFF 280558Z AUTO 35011KT 10SM CLR 20/01 A3002 RMK AO2 PK WND 02026/22 SLP057 T02020010 10316 20160 52023
Temperature: 20.2°C ( 68°F)
Dewpoint: 1.0°C ( 34°F) [RH = 28%]
Pressure (altimeter):30.02 inches Hg (1016.7 mb) [Sea level pressure: 1005.7 mb]
Winds:from the N (350 degrees) at 13 MPH (11 knots; 5.7 m/s)
Visibility:10 or more sm (16+ km)
Ceiling:at least 12,000 feet AGL
Clouds:sky clear below 12,000 feet AGL
QC Flag:automated observation with no human augmentation
Text:KAFF 280458Z AUTO 33006KT 10SM SCT160 19/01 A3000 RMK AO2 SLP056 T01930007
Temperature: 19.3°C ( 67°F)
Dewpoint: 0.7°C ( 33°F) [RH = 29%]
Pressure (altimeter):30.00 inches Hg (1016.0 mb) [Sea level pressure: 1005.6 mb]
Winds:from the NNW (330 degrees) at 7 MPH (6 knots; 3.1 m/s)
Visibility:10 or more sm (16+ km)
Ceiling:at least 12,000 feet AGL
Clouds: scattered clouds at 16000 feet AGL
QC Flag:automated observation with no human augmentation
Text:KAFF 280358Z AUTO 35008KT 10SM CLR 18/02 A2997 RMK AO2 SLP052 T01790021
Temperature: 17.9°C ( 64°F)
Dewpoint: 2.1°C ( 36°F) [RH = 35%]
Pressure (altimeter):29.97 inches Hg (1015.0 mb) [Sea level pressure: 1005.2 mb]
Winds:from the N (350 degrees) at 9 MPH (8 knots; 4.1 m/s)
Visibility:10 or more sm (16+ km)
Ceiling:at least 12,000 feet AGL
Clouds:sky clear below 12,000 feet AGL
QC Flag:automated observation with no human augmentation
Text:KAFF 280258Z AUTO 36005KT 10SM CLR 21/02 A2993 RMK AO2 SLP038 T02130018 52019
Temperature: 21.3°C ( 70°F)
Dewpoint: 1.8°C ( 35°F) [RH = 27%]
Pressure (altimeter):29.93 inches Hg (1013.6 mb) [Sea level pressure: 1003.8 mb]
Winds:from the N (360 degrees) at 6 MPH (5 knots; 2.6 m/s)
Visibility:10 or more sm (16+ km)
Ceiling:at least 12,000 feet AGL
Clouds:sky clear below 12,000 feet AGL
QC Flag:automated observation with no human augmentation
Text:KAFF 280158Z AUTO 32009KT 10SM CLR 29/M08 A2991 RMK AO2 SLP022 T02881083
Temperature: 28.8°C ( 84°F)
Dewpoint: -8.3°C ( 17°F) [RH = 8%]
Pressure (altimeter):29.91 inches Hg (1013.0 mb) [Sea level pressure: 1002.2 mb]
Winds:from the NW (320 degrees) at 10 MPH (9 knots; 4.6 m/s)
Visibility:10 or more sm (16+ km)
Ceiling:at least 12,000 feet AGL
Clouds:sky clear below 12,000 feet AGL
QC Flag:automated observation with no human augmentation
Text:KAFF 280058Z AUTO 29010G18KT 10SM CLR 31/M04 A2988 RMK AO2 PK WND 28026/21 SLP017 T03121043
Temperature: 31.2°C ( 88°F)
Dewpoint: -4.3°C ( 24°F) [RH = 10%]
Pressure (altimeter):29.88 inches Hg (1011.9 mb) [Sea level pressure: 1001.7 mb]
Winds:from the WNW (290 degrees) at 12 MPH (10 knots; 5.1 m/s) gusting to 21 MPH (18 knots; 9.3 m/s)
Visibility:10 or more sm (16+ km)
Ceiling:at least 12,000 feet AGL
Clouds:sky clear below 12,000 feet AGL
QC Flag:automated observation with no human augmentation
Text:KAFF 280017Z AUTO 29014G21KT 10SM CLR 31/M07 A2987 RMK AO2 WSHFT 06 SLP020
Temperature: 31.0°C ( 88°F)
Dewpoint: -7.0°C ( 19°F) [RH = 8%]
Pressure (altimeter):29.87 inches Hg (1011.6 mb) [Sea level pressure: 1002.0 mb]
Winds:from the WNW (290 degrees) at 16 MPH (14 knots; 7.2 m/s) gusting to 24 MPH (21 knots; 10.8 m/s)
Visibility:10 or more sm (16+ km)
Ceiling:at least 12,000 feet AGL
Clouds:sky clear below 12,000 feet AGL
QC Flag:automated observation with no human augmentation
Text:KAFF 280006Z AUTO 24011G18KT 10SM CLR 31/00 A2986 RMK AO2 WSHFT 05 SLP016
Temperature: 31.0°C ( 88°F)
Dewpoint: 0.0°C ( 32°F) [RH = 14%]
Pressure (altimeter):29.86 inches Hg (1011.3 mb) [Sea level pressure: 1001.6 mb]
Winds:from the WSW (240 degrees) at 13 MPH (11 knots; 5.7 m/s) gusting to 21 MPH (18 knots; 9.3 m/s)
Visibility:10 or more sm (16+ km)
Ceiling:at least 12,000 feet AGL
Clouds:sky clear below 12,000 feet AGL
QC Flag:automated observation with no human augmentation
Text:KAFF 280001Z AUTO 23011G18KT 10SM CLR 31/01 A2986 RMK AO2 WSHFT 00 SLP016
Temperature: 31.0°C ( 88°F)
Dewpoint: 1.0°C ( 34°F) [RH = 15%]
Pressure (altimeter):29.86 inches Hg (1011.3 mb) [Sea level pressure: 1001.6 mb]
Winds:from the SW (230 degrees) at 13 MPH (11 knots; 5.7 m/s) gusting to 21 MPH (18 knots; 9.3 m/s)
Visibility:10 or more sm (16+ km)
Ceiling:at least 12,000 feet AGL
Clouds:sky clear below 12,000 feet AGL
QC Flag:automated observation with no human augmentation
Text:KAFF 272358Z AUTO 24009KT 10SM CLR 31/00 A2986 RMK AO2 SLP016 60002 T03050002 10324 20293 57022
Temperature: 30.5°C ( 87°F)
Dewpoint: 0.2°C ( 32°F) [RH = 14%]
Pressure (altimeter):29.86 inches Hg (1011.3 mb) [Sea level pressure: 1001.6 mb]
Winds:from the WSW (240 degrees) at 10 MPH (9 knots; 4.6 m/s)
Visibility:10 or more sm (16+ km)
Ceiling:at least 12,000 feet AGL
Clouds:sky clear below 12,000 feet AGL
QC Flag:automated observation with no human augmentation
Text:KAFF 272258Z AUTO 19009G22KT 10SM FEW130 32/M02 A2989 RMK AO2 SLP027 T03221018
Temperature: 32.2°C ( 90°F)
Dewpoint: -1.8°C ( 29°F) [RH = 11%]
Pressure (altimeter):29.89 inches Hg (1012.3 mb) [Sea level pressure: 1002.7 mb]
Winds:from the S (190 degrees) at 10 MPH (9 knots; 4.6 m/s) gusting to 25 MPH (22 knots; 11.3 m/s)
Visibility:10 or more sm (16+ km)
Ceiling:at least 12,000 feet AGL
Clouds: few clouds at 13000 feet AGL
QC Flag:automated observation with no human augmentation
Text:KAFF 272158Z AUTO 25005KT 10SM FEW170 30/M01 A2992 RMK AO2 PK WND 23027/33 SLP038 T03031014
Temperature: 30.3°C ( 87°F)
Dewpoint: -1.4°C ( 29°F) [RH = 13%]
Pressure (altimeter):29.92 inches Hg (1013.3 mb) [Sea level pressure: 1003.8 mb]
Winds:from the WSW (250 degrees) at 6 MPH (5 knots; 2.6 m/s)
Visibility:10 or more sm (16+ km)
Ceiling:at least 12,000 feet AGL
Clouds: few clouds at 17000 feet AGL
QC Flag:automated observation with no human augmentation
Text:KAFF 272144Z AUTO 24012KT 10SM FEW170 31/M02 A2993 RMK AO2 WSHFT 34 SLP041
Temperature: 31.0°C ( 88°F)
Dewpoint: -2.0°C ( 28°F) [RH = 12%]
Pressure (altimeter):29.93 inches Hg (1013.6 mb) [Sea level pressure: 1004.1 mb]
Winds:from the WSW (240 degrees) at 14 MPH (12 knots; 6.2 m/s)
Visibility:10 or more sm (16+ km)
Ceiling:at least 12,000 feet AGL
Clouds: few clouds at 17000 feet AGL
QC Flag:automated observation with no human augmentation
Text:KAFF 272134Z AUTO 19017G23KT 10SM FEW160 SCT200 32/M03 A2993 RMK AO2 WSHFT 27 SLP038
Temperature: 32.0°C ( 90°F)
Dewpoint: -3.0°C ( 27°F) [RH = 10%]
Pressure (altimeter):29.93 inches Hg (1013.6 mb) [Sea level pressure: 1003.8 mb]
Winds:from the S (190 degrees) at 20 MPH (17 knots; 8.7 m/s) gusting to 26 MPH (23 knots; 11.8 m/s)
Visibility:10 or more sm (16+ km)
Ceiling:at least 12,000 feet AGL
Clouds: few clouds at 16000 feet AGL, scattered clouds at 20000 feet AGL
QC Flag:automated observation with no human augmentation
Text:KAFF 272059Z AUTO 23017G24KT 10SM FEW190 31/M04 A2994 RMK AO2 WSHFT 51 SLP041
Temperature: 31.0°C ( 88°F)
Dewpoint: -4.0°C ( 25°F) [RH = 10%]
Pressure (altimeter):29.94 inches Hg (1014.0 mb) [Sea level pressure: 1004.1 mb]
Winds:from the SW (230 degrees) at 20 MPH (17 knots; 8.7 m/s) gusting to 28 MPH (24 knots; 12.3 m/s)
Visibility:10 or more sm (16+ km)
Ceiling:at least 12,000 feet AGL
Clouds: few clouds at 19000 feet AGL
QC Flag:automated observation with no human augmentation
Text:KAFF 272058Z AUTO 23019G24KT 10SM FEW190 32/M02 A2994 RMK AO2 PK WND 27035/52 SLP041 P0002 60002 T03171024 57021
Temperature: 31.7°C ( 89°F)
Dewpoint: -2.4°C ( 28°F) [RH = 11%]
Pressure (altimeter):29.94 inches Hg (1014.0 mb) [Sea level pressure: 1004.1 mb]
Winds:from the SW (230 degrees) at 22 MPH (19 knots; 9.8 m/s) gusting to 28 MPH (24 knots; 12.3 m/s)
Visibility:10 or more sm (16+ km)
Ceiling:at least 12,000 feet AGL
Clouds: few clouds at 19000 feet AGL
QC Flag:automated observation with no human augmentation
Text:KAFF 272045Z AUTO 27011G20KT 10SM FEW160 31/00 A2994 RMK AO2 WSHFT 43 SLP041
Temperature: 31.0°C ( 88°F)
Dewpoint: 0.0°C ( 32°F) [RH = 14%]
Pressure (altimeter):29.94 inches Hg (1014.0 mb) [Sea level pressure: 1004.1 mb]
Winds:from the W (270 degrees) at 13 MPH (11 knots; 5.7 m/s) gusting to 23 MPH (20 knots; 10.3 m/s)
Visibility:10 or more sm (16+ km)
Ceiling:at least 12,000 feet AGL
Clouds: few clouds at 16000 feet AGL
QC Flag:automated observation with no human augmentation
Text:KAFF 272043Z AUTO 31015G20KT 10SM FEW160 31/00 A2994 RMK AO2 WSHFT 40 SLP041
Temperature: 31.0°C ( 88°F)
Dewpoint: 0.0°C ( 32°F) [RH = 14%]
Pressure (altimeter):29.94 inches Hg (1014.0 mb) [Sea level pressure: 1004.1 mb]
Winds:from the NW (310 degrees) at 17 MPH (15 knots; 7.7 m/s) gusting to 23 MPH (20 knots; 10.3 m/s)
Visibility:10 or more sm (16+ km)
Ceiling:at least 12,000 feet AGL
Clouds: few clouds at 16000 feet AGL
QC Flag:automated observation with no human augmentation
Text:KAFF 271958Z AUTO 27013G22KT 10SM CLR 32/M02 A2995 RMK AO2 PK WND 30030/55 PRESFR SLP045
Temperature: 32.0°C ( 90°F)
Dewpoint: -2.0°C ( 28°F) [RH = 11%]
Pressure (altimeter):29.95 inches Hg (1014.3 mb) [Sea level pressure: 1004.5 mb]
Winds:from the W (270 degrees) at 15 MPH (13 knots; 6.7 m/s) gusting to 25 MPH (22 knots; 11.3 m/s)
Visibility:10 or more sm (16+ km)
Ceiling:at least 12,000 feet AGL
Clouds:sky clear below 12,000 feet AGL
QC Flag:automated observation with no human augmentation
Text:KAFF 271941Z AUTO 24017G24KT 10SM FEW170 31/00 A2997 RMK AO2 WSHFT 39 SLP052
Temperature: 31.0°C ( 88°F)
Dewpoint: 0.0°C ( 32°F) [RH = 14%]
Pressure (altimeter):29.97 inches Hg (1015.0 mb) [Sea level pressure: 1005.2 mb]
Winds:from the WSW (240 degrees) at 20 MPH (17 knots; 8.7 m/s) gusting to 28 MPH (24 knots; 12.3 m/s)
Visibility:10 or more sm (16+ km)
Ceiling:at least 12,000 feet AGL
Clouds: few clouds at 17000 feet AGL
QC Flag:automated observation with no human augmentation
Text:KAFF 271927Z AUTO 19014G23KT 10SM FEW130 31/00 A2998 RMK AO2 WSHFT 25 SLP056
Temperature: 31.0°C ( 88°F)
Dewpoint: 0.0°C ( 32°F) [RH = 14%]
Pressure (altimeter):29.98 inches Hg (1015.3 mb) [Sea level pressure: 1005.6 mb]
Winds:from the S (190 degrees) at 16 MPH (14 knots; 7.2 m/s) gusting to 26 MPH (23 knots; 11.8 m/s)
Visibility:10 or more sm (16+ km)
Ceiling:at least 12,000 feet AGL
Clouds: few clouds at 13000 feet AGL
QC Flag:automated observation with no human augmentation
Text:KAFF 271921Z AUTO 17011G23KT 10SM FEW130 SCT200 31/00 A2999 RMK AO2 WSHFT 19 SLP056
Temperature: 31.0°C ( 88°F)
Dewpoint: 0.0°C ( 32°F) [RH = 14%]
Pressure (altimeter):29.99 inches Hg (1015.7 mb) [Sea level pressure: 1005.6 mb]
Winds:from the S (170 degrees) at 13 MPH (11 knots; 5.7 m/s) gusting to 26 MPH (23 knots; 11.8 m/s)
Visibility:10 or more sm (16+ km)
Ceiling:at least 12,000 feet AGL
Clouds: few clouds at 13000 feet AGL, scattered clouds at 20000 feet AGL
QC Flag:automated observation with no human augmentation
Text:KAFF 271858Z AUTO 30007G20KT 10SM FEW120 SCT190 30/M01 A2999 RMK AO2 SLP056 T03021013
Temperature: 30.2°C ( 86°F)
Dewpoint: -1.3°C ( 30°F) [RH = 13%]
Pressure (altimeter):29.99 inches Hg (1015.7 mb) [Sea level pressure: 1005.6 mb]
Winds:from the WNW (300 degrees) at 8 MPH (7 knots; 3.6 m/s) gusting to 23 MPH (20 knots; 10.3 m/s)
Visibility:10 or more sm (16+ km)
Ceiling:at least 12,000 feet AGL
Clouds: few clouds at 12000 feet AGL, scattered clouds at 19000 feet AGL
QC Flag:automated observation with no human augmentation
Text:KAFF 271758Z AUTO 10005KT 10SM BKN150 BKN170 29/03 A3002 RMK AO2 SLP066 T02900033 10290 20086 57020
Temperature: 29.0°C ( 84°F)
Dewpoint: 3.3°C ( 38°F) [RH = 19%]
Pressure (altimeter):30.02 inches Hg (1016.7 mb) [Sea level pressure: 1006.6 mb]
Winds:from the E (100 degrees) at 6 MPH (5 knots; 2.6 m/s)
Visibility:10 or more sm (16+ km)
Ceiling:15000 feet AGL
Clouds: broken clouds at 15000 feet AGL, broken clouds at 17000 feet AGL
QC Flag:automated observation with no human augmentation
Text:KAFF 271658Z AUTO 21010G21KT 10SM OVC150 27/04 A3005 RMK AO2 PK WND 25028/45 SLP077 T02670042
Temperature: 26.7°C ( 80°F)
Dewpoint: 4.2°C ( 40°F) [RH = 24%]
Pressure (altimeter):30.05 inches Hg (1017.7 mb) [Sea level pressure: 1007.7 mb]
Winds:from the SSW (210 degrees) at 12 MPH (10 knots; 5.1 m/s) gusting to 24 MPH (21 knots; 10.8 m/s)
Visibility:10 or more sm (16+ km)
Ceiling:15000 feet AGL
Clouds: overcast cloud deck at 15000 feet AGL
QC Flag:automated observation with no human augmentation
Text:KAFF 271558Z AUTO 10006KT 10SM FEW180 24/07 A3006 RMK AO2 SLP084 T02370071
Temperature: 23.7°C ( 75°F)
Dewpoint: 7.1°C ( 45°F) [RH = 34%]
Pressure (altimeter):30.06 inches Hg (1018.0 mb) [Sea level pressure: 1008.4 mb]
Winds:from the E (100 degrees) at 7 MPH (6 knots; 3.1 m/s)
Visibility:10 or more sm (16+ km)
Ceiling:at least 12,000 feet AGL
Clouds: few clouds at 18000 feet AGL
QC Flag:automated observation with no human augmentation
Text:KAFF 271458Z AUTO 17006KT 10SM CLR 20/08 A3009 RMK AO2 SLP097 T02030075 58008
Temperature: 20.3°C ( 69°F)
Dewpoint: 7.5°C ( 46°F) [RH = 44%]
Pressure (altimeter):30.09 inches Hg (1019.0 mb) [Sea level pressure: 1009.7 mb]
Winds:from the S (170 degrees) at 7 MPH (6 knots; 3.1 m/s)
Visibility:10 or more sm (16+ km)
Ceiling:at least 12,000 feet AGL
Clouds:sky clear below 12,000 feet AGL
QC Flag:automated observation with no human augmentation
Text:KAFF 271358Z AUTO 17006KT 10SM BKN150 17/07 A3011 RMK AO2 SLP104 T01720072
Temperature: 17.2°C ( 63°F)
Dewpoint: 7.2°C ( 45°F) [RH = 52%]
Pressure (altimeter):30.11 inches Hg (1019.7 mb) [Sea level pressure: 1010.4 mb]
Winds:from the S (170 degrees) at 7 MPH (6 knots; 3.1 m/s)
Visibility:10 or more sm (16+ km)
Ceiling:15000 feet AGL
Clouds: broken clouds at 15000 feet AGL
QC Flag:automated observation with no human augmentation
Text:KAFF 271258Z AUTO 00000KT 10SM CLR 12/07 A3013 RMK AO2 SLP122 T01210070
Temperature: 12.1°C ( 54°F)
Dewpoint: 7.0°C ( 45°F) [RH = 71%]
Pressure (altimeter):30.13 inches Hg (1020.4 mb) [Sea level pressure: 1012.2 mb]
Winds:calm
Visibility:10 or more sm (16+ km)
Ceiling:at least 12,000 feet AGL
Clouds:sky clear below 12,000 feet AGL
QC Flag:automated observation with no human augmentation
Text:KAFF 271158Z AUTO 36009KT 10SM CLR 08/06 A3012 RMK AO2 SLP128 T00840059 10150 20082 57017
Temperature: 8.4°C ( 47°F)
Dewpoint: 5.9°C ( 43°F) [RH = 84%]
Pressure (altimeter):30.12 inches Hg (1020.1 mb) [Sea level pressure: 1012.8 mb]
Winds:from the N (360 degrees) at 10 MPH (9 knots; 4.6 m/s)
Visibility:10 or more sm (16+ km)
Ceiling:at least 12,000 feet AGL
Clouds:sky clear below 12,000 feet AGL
QC Flag:automated observation with no human augmentation
Text:KAFF 271058Z AUTO 36007KT 10SM SCT160 08/06 A3014 RMK AO2 SLP130 T00820059
Temperature: 8.2°C ( 47°F)
Dewpoint: 5.9°C ( 43°F) [RH = 85%]
Pressure (altimeter):30.14 inches Hg (1020.7 mb) [Sea level pressure: 1013.0 mb]
Winds:from the N (360 degrees) at 8 MPH (7 knots; 3.6 m/s)
Visibility:10 or more sm (16+ km)
Ceiling:at least 12,000 feet AGL
Clouds: scattered clouds at 16000 feet AGL
QC Flag:automated observation with no human augmentation
Text:KAFF 270958Z AUTO 36009KT 10SM BKN160 09/07 A3015 RMK AO2 SLP129 T00920069
Temperature: 9.2°C ( 49°F)
Dewpoint: 6.9°C ( 44°F) [RH = 86%]
Pressure (altimeter):30.15 inches Hg (1021.1 mb) [Sea level pressure: 1012.9 mb]
Winds:from the N (360 degrees) at 10 MPH (9 knots; 4.6 m/s)
Visibility:10 or more sm (16+ km)
Ceiling:16000 feet AGL
Clouds: broken clouds at 16000 feet AGL
QC Flag:automated observation with no human augmentation
Text:KAFF 270858Z AUTO 36007KT 10SM CLR 10/07 A3018 RMK AO2 SLP134 T00960072 57015
Temperature: 9.6°C ( 49°F)
Dewpoint: 7.2°C ( 45°F) [RH = 85%]
Pressure (altimeter):30.18 inches Hg (1022.1 mb) [Sea level pressure: 1013.4 mb]
Winds:from the N (360 degrees) at 8 MPH (7 knots; 3.6 m/s)
Visibility:10 or more sm (16+ km)
Ceiling:at least 12,000 feet AGL
Clouds:sky clear below 12,000 feet AGL
QC Flag:automated observation with no human augmentation